Main page
METAR-TAF:

METAR-TAF

Airports :

Tabriz, Iran

Tabriz International Airport

latitude: 38-05N, longitude: 046-17E, elevation: 1367 m

Current weather observation

The report was made 32 minutes ago, at 20:00 UTC
Wind 4 kt from the East
Temperature 14°C
Humidity 44%
Pressure 1020 hPa
Visibility 10 km or more
Few clouds at a height of 3500 ft

METAR: OITT 302000Z 09004KT 9999 FEW035 14/02 Q1019 A3011

Time: 01:02 (20:32 UTC)

Forecast

The report was made 3 hours and 32 minutes ago, at 17:00 UTC
Forecast valid from 30 at 18 UTC to 01 at 24 UTC
Wind 10 kt from the West/Southwest
Visibility: 7000 m
Few clouds at a height of 3500 ft
Scattered clouds at a height of 10000 ft
Temporary
from 01 at 06 UTC to 01 at 15 UTC
Wind 17 kt from the East/Southeast
Few clouds at a height of 3500 ft, Cumulonimbus.
Scattered clouds at a height of 4000 ft
Broken clouds at a height of 10000 ft
thunderstorm, rain showers

TAF: OITT 301700Z 3018/0124 25005MPS 7000 FEW035 SCT100 TEMPO 0106/0115 12009MPS TS SHRA FEW035CB SCT040 BKN100

Weather observations and forecasts of more than 4000 airports (METAR and TAF reports).

The available stations are represented by yellow and red dots on the map.

Hover mouse over dot to see the name of the station.

Then click to see weather observations and forecasts.

To change the map : click on the green buttons with a black cross to zoom in, on the green button with a dash to zoom out, or on the green arrows for adjacent maps.


METAR-TAF: